Sea Valentia, Ireland
Current Conditions -  °F | °C
As of 8:30 PM on Monday 24 Nov 2014 (Local Time) from EIKY Reporting Station
Light Rain Light Rain  
Wind Chill: 46°   Ceiling: 2000
Heat Index: 46°   Visibility: 6mi
Dew Point: 45°   Wind: 0mph
Humidity: 93%   Direction: NA
Pressure: 30.27"   Gusts: NA
Location:  52.5°N, 10°W
Report Text: EIKY 241930Z 00000KT 9999 -RA BKN020 BKN028 OVC034 08/07 Q1025
Loading
Personal Weather Stations






























Interactive Weather Map New forecast layout! Learn more

10-Day Weather Forecast

Advertisements
Track Severe Weather on mobile